Time;durP1;ratioP1;P1;durP2;ratioP2;P2;SDS_P1;SDS_P2;PMS_P1;PMS_P2;Temp;Humidity;BMP_temperature;BMP_pressure;BME280_temperature;BME280_humidity;BME280_pressure;Samples;Min_cycle;Max_cycle;Signal;HPM_P1;HPM_P2
2022/09/14 00:20:31;;;;;;;;;;;;;;;;;;;;;
2022/09/14 00:33:21;;;;;;;0.90;0.72;;;;;;;19.77;60.16;99034.41;1840832;106;25866;-79
2022/09/14 00:37:50;;;;;;;0.70;0.70;;;;;;;19.71;60.12;99018.75;1814836;107;26165;-80
2022/09/14 00:41:38;;;;;;;0.60;0.60;;;;;;;19.66;60.11;99023.36;1818130;107;25869;-79
2022/09/14 00:49:51;;;;;;;0.70;0.70;;;;;;;19.54;60.19;99019.31;1779690;109;25835;-81
2022/09/14 00:54:03;;;;;;;;;;;;;;;19.51;60.12;99016.80;1792563;110;26625;-79
2022/09/14 00:57:54;;;;;;;0.50;0.50;;;;;;;19.46;60.22;99026.66;1783890;109;26039;-80
2022/09/14 01:02:23;;;;;;;;;;;;;;;;;;;;;
2022/09/14 01:10:56;;;;;;;1.45;0.93;;;;;;;19.37;60.06;99026.96;1793366;110;25938;-79
2022/09/14 01:15:39;;;;;;;;;;;;;;;;;;;;;
2022/09/14 01:20:02;;;;;;;;;;;;;;;;;;;;;
2022/09/14 01:24:02;;;;;;;0.60;0.60;;;;;;;19.33;60.10;99017.81;1808776;108;26263;-79
2022/09/14 01:28:01;;;;;;;0.80;0.70;;;;;;;19.32;60.07;99011.27;1799192;108;25963;-80
2022/09/14 01:32:24;;;;;;;;;;;;;;;;;;;;;
2022/09/14 01:42:05;;;;;;;1.32;0.85;;;;;;;19.27;60.15;99008.80;1841226;106;25902;-78
2022/09/14 01:45:52;;;;;;;2.87;0.90;;;;;;;19.25;60.24;99007.11;1827369;106;25767;-78
2022/09/14 01:53:33;;;;;;;1.00;0.93;;;;;;;19.25;60.36;98997.88;1772970;110;25852;-79
2022/09/14 01:57:55;;;;;;;;;;;;;;;;;;;;;
2022/09/14 02:10:21;;;;;;;1.85;1.75;;;;;;;19.16;60.58;98990.24;1789221;110;25805;-79
2022/09/14 02:15:03;;;;;;;2.20;2.10;;;;;;;19.06;60.90;98987.05;1816199;108;25926;-80
2022/09/14 02:29:27;;;;;;;2.60;2.45;;;;;;;19.03;61.47;98978.76;1796078;108;25641;-80
2022/09/14 02:38:19;;;;;;;;;;;;;;;;;;;;;
2022/09/14 02:42:37;;;;;;;3.60;3.27;;;;;;;19.11;61.64;98990.41;1793524;108;25825;-79
2022/09/14 02:51:17;;;;;;;3.67;3.37;;;;;;;19.10;61.68;98982.06;1763218;110;26359;-79
2022/09/14 03:12:50;;;;;;;;;;;;;;;;;;;;;
2022/09/14 04:02:13;;;;;;;9.48;8.58;;;;;;;18.82;62.52;98975.05;1743174;111;25494;-79
2022/09/14 04:06:10;;;;;;;10.10;9.28;;;;;;;18.80;62.62;98970.30;1736361;108;25847;-78
2022/09/14 04:17:55;;;;;;;;;;;;;;;;;;;;;
2022/09/14 04:28:22;;;;;;;9.80;8.90;;;;;;;18.68;62.90;98957.91;1730624;110;25886;-80
2022/09/14 04:32:39;;;;;;;8.65;7.95;;;;;;;18.68;62.94;98960.09;1683598;111;25953;-79
2022/09/14 04:40:20;;;;;;;9.98;9.05;;;;;;;18.76;62.76;98959.87;1667986;117;25947;-79
2022/09/14 05:08:37;;;;;;;;;;;;;;;;;;;;;
2022/09/14 05:18:31;;;;;;;7.97;7.17;;;;;;;19.02;62.54;98962.52;;;;
2022/09/14 05:22:15;;;;;;;6.35;5.80;;;;;;;19.09;62.38;98965.81;1670325;116;25956;-80
2022/09/14 05:26:07;;;;;;;6.97;6.35;;;;;;;19.15;62.36;98967.39;1702268;114;26019;-81
2022/09/14 05:48:07;;;;;;;7.87;7.10;;;;;;;19.68;61.93;98962.05;1734121;113;32649;-81
2022/09/14 05:53:47;;;;;;;;;;;;;;;;;;;;;
2022/09/14 05:57:32;;;;;;;7.92;7.17;;;;;;;19.77;61.75;98959.91;1696181;112;26097;-81
2022/09/14 06:08:24;;;;;;;9.93;8.93;;;;;;;19.70;61.87;98954.91;1653723;118;25930;-80
2022/09/14 06:12:18;;;;;;;9.75;8.68;;;;;;;19.67;61.98;98949.27;1622021;121;26050;-78
2022/09/14 06:19:43;;;;;;;14.90;10.10;;;;;;;19.66;62.01;98966.05;1634055;118;26152;-78
2022/09/14 06:23:30;;;;;;;10.28;9.28;;;;;;;19.66;62.10;98971.34;1606780;121;26054;-79
2022/09/14 06:27:11;;;;;;;10.00;8.85;;;;;;;19.68;62.13;98974.80;1630643;118;25917;-80
2022/09/14 06:31:28;;;;;;;;;;;;;;;;;;;;;
2022/09/14 06:39:32;;;;;;;9.60;8.58;;;;;;;19.71;61.92;98977.77;1600726;122;25869;-80
2022/09/14 06:44:00;;;;;;;;;;;;;;;;;;;;;
2022/09/14 06:47:47;;;;;;;9.60;8.80;;;;;;;19.77;61.85;98973.59;1611097;118;26003;-83
2022/09/14 06:51:53;;;;;;;;;;;;;;;;;;;;;
2022/09/14 07:14:29;;;;;;;6.75;6.22;;;;;;;19.93;61.46;98997.24;;;;
2022/09/14 07:41:52;;;;;;;9.83;8.65;;;;;;;24.62;53.44;99026.70;1634681;118;26021;-78
2022/09/14 07:46:52;;;;;;;;;;;;;;;;;;;;;
2022/09/14 07:50:38;;;;;;;8.20;7.50;;;;;;;26.56;50.51;99026.30;1577152;123;25969;-78
2022/09/14 07:54:12;;;;;;;9.35;6.42;;;;;;;27.19;48.40;99028.94;1529701;126;25959;-77
2022/09/14 07:58:00;;;;;;;6.35;5.72;;;;;;;27.81;47.17;99022.53;1541377;122;26040;-78
2022/09/14 08:01:23;;;;;;;;;;;;;;;28.05;45.51;99022.64;1592806;121;25886;-78
2022/09/14 08:05:23;;;;;;;7.12;6.25;;;;;;;28.45;44.30;99019.81;1590185;122;25909;-78
2022/09/14 08:09:25;;;;;;;12.73;5.60;;;;;;;28.67;43.89;99029.86;1585523;121;26002;-78
2022/09/14 08:13:02;;;;;;;6.12;5.00;;;;;;;28.19;43.47;99036.41;1586813;122;25969;-80
2022/09/14 08:21:34;;;;;;;4.65;3.20;;;;;;;30.41;40.70;99045.33;1613468;121;26587;-80
2022/09/14 08:25:34;;;;;;;;;;;;;;;;;;;;;
2022/09/14 08:29:47;;;;;;;;;;;;;;;;;;;;;
2022/09/14 08:33:46;;;;;;;5.42;3.95;;;;;;;33.17;35.47;99047.91;1611340;121;26100;-82
2022/09/14 08:38:12;;;;;;;;;;;;;;;;;;;;;
2022/09/14 08:42:23;;;;;;;5.05;3.25;;;;;;;33.43;34.23;99047.72;1572608;125;26236;-80
2022/09/14 08:46:04;;;;;;;;;;;;;;;;;;;;;
2022/09/14 08:50:17;;;;;;;4.85;3.60;;;;;;;33.52;32.97;99050.11;1566461;124;26294;-80
2022/09/14 08:54:01;;;;;;;4.03;3.30;;;;;;;33.09;32.83;99038.67;1561710;124;26007;-81
2022/09/14 08:57:54;;;;;;;4.78;3.60;;;;;;;32.22;33.20;99039.18;1482947;126;26274;-80
2022/09/14 09:02:19;;;;;;;5.92;3.08;;;;;;;31.67;33.83;99025.57;1498826;129;25948;-80
2022/09/14 09:06:44;;;;;;;4.90;2.77;;;;;;;32.50;33.69;99027.83;1500863;128;25928;-79
2022/09/14 09:16:22;;;;;;;;;;;;;;;;;;;;;
2022/09/14 09:20:24;;;;;;;;;;;;;;;;;;;;;
2022/09/14 09:24:41;;;;;;;;;;;;;;;;;;;;;
2022/09/14 09:28:53;;;;;;;9.85;3.37;;;;;;;31.96;31.34;99029.34;1603672;121;25809;-78
2022/09/14 10:26:50;;;;;;;4.85;2.50;;;;;;;31.73;32.33;99021.02;1599227;122;26081;-79
2022/09/14 10:31:19;;;;;;;5.15;2.98;;;;;;;32.07;32.08;99018.97;1580518;119;25923;-80
2022/09/14 10:35:13;;;;;;;3.22;2.92;;;;;;;32.56;31.56;99017.34;1562341;124;26371;-82
2022/09/14 10:45:37;;;;;;;;;;;;;;;;;;;;;
2022/09/14 10:56:16;;;;;;;;;;;;;;;;;;;;;
2022/09/14 11:14:03;;;;;;;5.20;2.05;;;;;;;32.54;30.07;99017.15;1654568;119;25855;-84
2022/09/14 11:18:58;;;;;;;;;;;;;;;;;;;;;
2022/09/14 11:22:49;;;;;;;2.87;2.00;;;;;;;32.60;30.74;99018.80;1700429;114;25935;-80
2022/09/14 11:26:56;;;;;;;;;;;;;;;;;;;;;
2022/09/14 11:45:01;;;;;;;2.12;1.20;;;;;;;30.61;32.00;99003.84;1626962;120;25884;-79
2022/09/14 12:03:18;;;;;;;;;;;;;;;;;;;;;
2022/09/14 12:08:00;;;;;;;;;;;;;;;;;;;;;
2022/09/14 12:16:28;;;;;;;1.85;1.20;;;;;;;31.53;30.20;98987.70;1631260;119;25900;-81
2022/09/14 12:20:58;;;;;;;1.95;0.90;;;;;;;31.77;29.64;98988.77;1586396;119;26125;-81
2022/09/14 12:24:50;;;;;;;5.05;1.00;;;;;;;31.59;29.45;98983.59;1539349;123;25875;-80
2022/09/14 12:34:30;;;;;;;;;;;;;;;;;;;;;
2022/09/14 12:39:01;;;;;;;3.42;1.25;;;;;;;31.48;29.54;98975.09;1576935;124;25453;-79
2022/09/14 12:43:19;;;;;;;4.08;1.30;;;;;;;31.47;30.34;98977.44;1618018;119;25927;-80
2022/09/14 12:56:23;;;;;;;2.50;1.07;;;;;;;31.65;30.63;98983.92;1679619;117;25978;-81
2022/09/14 13:00:18;;;;;;;1.87;1.00;;;;;;;31.63;30.58;98982.38;1687390;114;26015;-79
2022/09/14 13:04:35;;;;;;;2.95;1.10;;;;;;;31.57;30.07;98968.93;1690197;113;26010;-81
2022/09/14 13:08:20;;;;;;;2.25;1.50;;;;;;;31.44;29.50;98972.31;1657726;117;25893;-80
2022/09/14 13:12:11;;;;;;;2.08;1.15;;;;;;;31.34;28.37;98964.16;1605759;121;26897;-81
2022/09/14 13:16:13;;;;;;;2.95;1.00;;;;;;;30.77;29.10;98965.33;1609006;121;26220;-79
2022/09/14 13:24:20;;;;;;;2.15;1.12;;;;;;;30.86;29.51;98962.39;1630342;118;25927;-79
2022/09/14 13:28:26;;;;;;;4.03;1.00;;;;;;;30.62;29.16;98967.92;1632665;117;26090;-79
2022/09/14 13:36:57;;;;;;;;;;;;;;;;;;;;;
2022/09/14 13:40:42;;;;;;;2.30;1.15;;;;;;;29.56;30.13;98958.80;1657884;116;26004;-79
2022/09/14 13:44:50;;;;;;;;;;;;;;;;;;;;;
2022/09/14 13:48:38;;;;;;;;;;;;;;;;;;;;;
2022/09/14 13:59:38;;;;;;;4.87;1.30;;;;;;;27.84;32.53;98933.92;1809885;106;25848;-79
2022/09/14 14:03:59;;;;;;;3.65;1.10;;;;;;;27.50;32.85;98929.55;1789842;108;25846;-79
2022/09/14 14:07:50;;;;;;;3.08;1.77;;;;;;;27.15;33.42;98932.47;1810187;107;26127;-80
2022/09/14 14:11:14;;;;;;;4.35;1.40;;;;;;;26.92;33.88;98925.95;1866260;104;25860;-80
2022/09/14 14:15:06;;;;;;;2.27;1.50;;;;;;;26.72;34.05;98924.60;1877949;104;25893;-81
2022/09/14 14:19:24;;;;;;;2.80;1.22;;;;;;;26.45;34.34;98917.41;1834969;106;25879;-79
2022/09/14 14:23:46;;;;;;;;;;;;;;;;;;;;;
2022/09/14 14:32:23;;;;;;;3.85;1.15;;;;;;;26.11;35.30;98922.23;1813124;106;25994;-79
2022/09/14 14:36:41;;;;;;;3.42;1.50;;;;;;;26.17;35.33;98905.46;1791361;108;25881;-80
2022/09/14 14:40:47;;;;;;;4.10;1.42;;;;;;;26.12;35.31;98911.96;1792048;108;25479;-81
2022/09/14 14:44:44;;;;;;;4.65;1.25;;;;;;;26.05;35.52;98913.28;1815021;107;25942;-80
2022/09/14 14:48:12;;;;;;;3.83;1.30;;;;;;;25.90;35.83;98912.45;1799713;108;26377;-81
2022/09/14 14:51:50;;;;;;;2.25;1.42;;;;;;;25.82;36.03;98916.09;1806427;107;26089;-78
2022/09/14 14:55:57;;;;;;;2.30;1.10;;;;;;;25.72;36.05;98917.58;1832017;105;26005;-80
2022/09/14 14:59:55;;;;;;;;;;;;;;;;;;;;;
2022/09/14 15:03:22;;;;;;;8.60;1.07;;;;;;;25.26;36.39;98904.85;1891222;102;25908;-81
2022/09/14 15:06:53;;;;;;;2.60;1.32;;;;;;;25.06;36.50;98900.67;1895648;102;25872;-80
2022/09/14 15:10:30;;;;;;;2.17;1.25;;;;;;;25.01;36.67;98894.30;1935146;100;26462;-79
2022/09/14 15:13:52;;;;;;;3.08;1.05;;;;;;;24.88;36.73;98895.48;1956283;100;25816;-80
2022/09/14 15:17:25;;;;;;;2.72;1.42;;;;;;;24.82;37.08;98888.33;1985107;98;25844;-80
2022/09/14 15:20:52;;;;;;;2.80;1.42;;;;;;;24.76;37.29;98888.20;2017659;96;26042;-81
2022/09/14 15:24:15;;;;;;;3.87;1.50;;;;;;;24.67;37.31;98880.73;2020466;97;25868;-79
2022/09/14 15:27:50;;;;;;;3.47;1.27;;;;;;;24.58;37.50;98874.63;2022611;96;25817;-79
2022/09/14 15:31:15;;;;;;;3.60;1.37;;;;;;;24.39;37.92;98873.45;2024523;95;25869;-79
2022/09/14 15:34:49;;;;;;;6.05;1.70;;;;;;;24.24;38.19;98870.72;2019678;96;25920;-79
2022/09/14 15:45:50;;;;;;;2.87;1.67;;;;;;;24.02;38.73;98876.84;1938362;100;25766;-80
2022/09/14 15:49:24;;;;;;;4.62;2.40;;;;;;;23.83;38.93;98877.03;1957096;99;25904;-80
2022/09/14 15:53:05;;;;;;;5.05;1.17;;;;;;;23.73;39.06;98870.02;1931201;102;25931;-79
2022/09/14 15:56:32;;;;;;;4.10;1.07;;;;;;;23.64;39.17;98869.62;1937201;100;25829;-79
2022/09/14 16:00:21;;;;;;;7.45;1.35;;;;;;;23.56;39.49;98862.91;1933038;100;25870;-80
2022/09/14 16:03:52;;;;;;;7.47;1.17;;;;;;;23.53;39.62;98868.88;1951586;99;25844;-80
2022/09/14 16:07:48;;;;;;;2.25;1.42;;;;;;;23.42;39.86;98864.58;1951692;99;25759;-81
2022/09/14 16:14:45;;;;;;;3.12;1.45;;;;;;;23.16;40.44;98867.30;1849616;105;25776;-80
2022/09/14 16:21:53;;;;;;;1.42;0.82;;;;;;;22.98;40.94;98857.13;1842502;107;25819;-80
2022/09/14 16:25:21;;;;;;;3.05;1.10;;;;;;;22.82;41.18;98854.38;1869369;104;25710;-80
2022/09/14 16:28:56;;;;;;;3.40;1.42;;;;;;;22.73;41.43;98854.37;1841602;105;25970;-80
2022/09/14 16:32:25;;;;;;;2.35;1.05;;;;;;;22.67;41.70;98850.69;1821393;107;26019;-80
2022/09/14 16:35:56;;;;;;;3.25;1.20;;;;;;;22.61;42.09;98855.86;1820026;107;25980;-79
2022/09/14 16:46:48;;;;;;;;;;;;;;;;;;;;;
2022/09/14 16:50:12;;;;;;;3.70;1.70;;;;;;;22.12;43.12;98854.23;1794349;107;26297;-80
2022/09/14 16:53:46;;;;;;;4.58;1.30;;;;;;;22.10;43.35;98846.80;1744369;112;26524;-79
2022/09/14 16:57:17;;;;;;;2.60;1.57;;;;;;;22.04;43.56;98844.47;1738992;110;26195;-80
2022/09/14 17:00:54;;;;;;;1.92;1.20;;;;;;;21.97;43.64;98841.72;1745341;112;25961;-80
2022/09/14 17:04:25;;;;;;;;;;;;;;;;;;;;;
2022/09/14 17:07:54;;;;;;;2.15;1.30;;;;;;;21.79;44.08;98847.87;1688128;113;25936;-79
2022/09/14 17:11:32;;;;;;;3.87;1.60;;;;;;;21.68;44.45;98853.67;1698813;113;27154;-79
2022/09/14 17:29:00;;;;;;;2.60;1.50;;;;;;;22.54;44.66;98851.77;2404279;79;25480;-79
2022/09/14 17:32:27;;;;;;;3.98;1.95;;;;;;;22.39;44.46;98849.41;2365845;83;25704;-79
2022/09/14 17:36:01;;;;;;;;;;;;;;;22.16;44.71;98861.14;2381748;83;25888;-79
2022/09/14 17:39:28;;;;;;;4.72;2.02;;;;;;;21.92;45.10;98864.47;2258789;86;25800;-78
2022/09/14 17:42:56;;;;;;;4.55;2.10;;;;;;;21.69;45.30;98865.52;2267760;87;25705;-79
2022/09/14 17:46:30;;;;;;;8.03;2.52;;;;;;;21.52;45.64;98864.59;2252545;86;25715;-78
2022/09/14 17:49:59;;;;;;;4.00;1.62;;;;;;;21.34;45.91;98857.86;2248892;87;26092;-79
2022/09/14 17:53:39;;;;;;;3.33;1.77;;;;;;;21.25;46.27;98856.05;2236883;88;25855;-80
2022/09/14 17:57:08;;;;;;;3.95;1.92;;;;;;;21.19;46.53;98867.33;2237865;87;25236;-81
2022/09/14 18:00:39;;;;;;;10.63;1.93;;;;;;;21.10;46.72;98859.78;2187005;90;25818;-81
2022/09/14 18:04:08;;;;;;;2.92;1.57;;;;;;;21.01;47.01;98851.36;2189165;90;25760;-79
2022/09/14 18:11:28;;;;;;;4.45;1.82;;;;;;;20.85;47.57;98853.80;2121303;93;25306;-80
2022/09/14 18:14:56;;;;;;;3.72;1.90;;;;;;;20.87;47.94;98855.94;2108929;93;25867;-80
2022/09/14 18:18:38;;;;;;;3.55;1.87;;;;;;;20.88;47.76;98855.00;2100320;91;25958;-80
2022/09/14 18:21:56;;;;;;;2.87;1.80;;;;;;;20.92;47.99;98861.45;2097861;91;25886;-80
2022/09/14 18:25:30;;;;;;;4.25;2.60;;;;;;;20.90;48.03;98851.37;2095703;92;25858;-80
2022/09/14 18:29:09;;;;;;;4.08;2.00;;;;;;;20.92;48.19;98857.91;2104009;92;25907;-80
2022/09/14 18:32:37;;;;;;;5.03;1.92;;;;;;;21.00;48.32;98862.43;2085419;93;26265;-79
2022/09/14 18:36:00;;;;;;;2.98;1.85;;;;;;;21.00;48.41;98863.75;2024945;95;25854;-84
2022/09/14 18:39:53;;;;;;;5.53;2.50;;;;;;;20.93;48.50;98861.83;2045106;95;25978;-80
2022/09/14 18:43:21;;;;;;;7.87;2.40;;;;;;;20.88;48.54;98860.30;2048434;95;25753;-79
2022/09/14 18:46:51;;;;;;;4.03;1.77;;;;;;;20.86;48.87;98862.17;2049181;95;25759;-80
2022/09/14 18:50:45;;;;;;;3.45;2.50;;;;;;;20.89;48.84;98858.03;2051756;94;26593;-80
2022/09/14 18:54:23;;;;;;;3.62;2.20;;;;;;;21.08;48.75;98854.14;1934071;99;25874;-79
2022/09/14 18:57:55;;;;;;;4.85;2.08;;;;;;;21.28;48.54;98845.31;1933762;99;25873;-80
2022/09/14 19:01:45;;;;;;;2.95;1.67;;;;;;;21.40;48.39;98839.03;1931778;102;25337;-79
2022/09/14 19:05:38;;;;;;;3.75;2.17;;;;;;;21.52;48.24;98844.70;1920722;101;25852;-79
2022/09/14 19:08:37;;;;;;;4.65;2.05;;;;;;;21.59;48.12;98844.81;1962170;100;25862;-79
2022/09/14 19:12:04;;;;;;;4.25;1.90;;;;;;;21.65;48.03;98840.56;1977883;100;25961;-80
2022/09/14 19:15:52;;;;;;;2.75;2.25;;;;;;;21.69;47.96;98827.54;1978179;100;26605;-79
2022/09/14 19:19:23;;;;;;;3.10;1.87;;;;;;;21.72;47.91;98822.56;1975137;100;26165;-79
2022/09/14 19:22:51;;;;;;;4.62;2.52;;;;;;;21.75;47.86;98819.77;1975065;99;26213;-81
2022/09/14 19:26:23;;;;;;;6.42;2.17;;;;;;;21.77;47.83;98821.87;2092218;91;25492;-80
2022/09/14 19:29:52;;;;;;;2.55;1.70;;;;;;;21.78;47.84;98820.48;2088224;92;25815;-79
2022/09/14 19:37:25;;;;;;;;;;;;;;;;;;;;;
2022/09/14 19:40:58;;;;;;;3.10;2.30;;;;;;;21.81;47.89;98828.77;2142646;92;25830;-79
2022/09/14 19:44:40;;;;;;;3.77;2.40;;;;;;;21.81;47.95;98824.80;2145347;92;25940;-79
2022/09/14 19:48:11;;;;;;;5.75;2.30;;;;;;;21.80;47.96;98824.38;2084426;94;25778;-79
2022/09/14 19:51:41;;;;;;;5.90;2.67;;;;;;;21.80;48.05;98820.40;2084093;93;25731;-79
2022/09/14 19:55:32;;;;;;;8.88;2.08;;;;;;;21.80;48.08;98825.27;2085315;93;25788;-78
2022/09/14 19:59:10;;;;;;;4.87;2.47;;;;;;;21.79;48.11;98821.34;2063739;94;25835;-81
2022/09/14 20:02:36;;;;;;;3.12;2.33;;;;;;;21.79;48.15;98814.23;2074996;95;25767;-79
2022/09/14 20:06:24;;;;;;;3.60;2.98;;;;;;;21.79;48.19;98809.41;2054293;94;27158;-80
2022/09/14 20:09:43;;;;;;;5.62;2.72;;;;;;;21.77;48.23;98808.17;1974831;99;25820;-79
2022/09/14 20:13:12;;;;;;;4.20;2.58;;;;;;;21.76;48.26;98801.12;1981283;99;25934;-79
2022/09/14 20:17:00;;;;;;;4.95;2.62;;;;;;;21.77;48.30;98804.63;1897081;99;25910;-80
2022/09/14 20:20:47;;;;;;;4.65;2.10;;;;;;;21.75;48.28;98810.49;1958684;99;25879;-80
2022/09/14 20:24:24;;;;;;;5.58;2.60;;;;;;;21.73;48.34;98805.24;1975550;99;25861;-80
2022/09/14 20:27:56;;;;;;;7.40;3.02;;;;;;;21.70;48.36;98804.09;1965978;98;25878;-79
2022/09/14 20:31:22;;;;;;;;;;;;;;;21.66;48.38;98801.16;1939897;100;25800;-79
2022/09/14 20:35:08;;;;;;;6.55;3.37;;;;;;;21.64;48.39;98798.59;1954357;99;26323;-80
2022/09/14 20:38:58;;;;;;;;;;;;;;;;;;;;;
2022/09/14 20:42:17;;;;;;;7.05;3.50;;;;;;;21.61;48.48;98792.58;1956723;99;26270;-79
2022/09/14 20:46:04;;;;;;;18.02;3.72;;;;;;;21.60;48.55;98795.70;1965269;98;25872;-77
2022/09/14 20:49:52;;;;;;;7.20;3.50;;;;;;;21.57;48.54;98790.53;1931380;100;25807;-76
2022/09/14 20:58:01;;;;;;;;;;;;;;;;;;;;;
2022/09/14 21:02:05;;;;;;;7.87;4.00;;;;;;;21.57;48.79;98791.86;1726788;110;25892;-84
2022/09/14 21:06:18;;;;;;;6.90;3.80;;;;;;;21.56;48.81;98788.80;1717325;115;26224;-83
2022/09/14 21:10:47;;;;;;;;;;;;;;;;;;;;;
2022/09/14 21:21:18;;;;;;;;;;;;;;;;;;;;;
2022/09/14 21:30:24;;;;;;;;;;;;;;;;;;;;;
2022/09/14 21:34:25;;;;;;;;;;;;;;;;;;;;;
2022/09/14 21:38:08;;;;;;;;;;;;;;;;;;;;;
2022/09/14 21:41:30;;;;;;;7.33;4.22;;;;;;;21.38;49.20;98777.27;1990436;94;26197;-78
2022/09/14 21:45:21;;;;;;;7.33;4.33;;;;;;;21.34;49.30;98781.42;1949571;101;26071;-81
2022/09/14 21:48:58;;;;;;;7.92;3.90;;;;;;;21.32;49.25;98780.63;1916731;101;26076;-80
2022/09/14 21:52:19;;;;;;;4.67;3.60;;;;;;;21.30;49.30;98774.08;1907517;101;25451;-81
2022/09/14 21:55:56;;;;;;;8.00;3.83;;;;;;;21.31;49.37;98770.96;1903197;100;25748;-79
2022/09/14 21:59:26;;;;;;;6.58;3.72;;;;;;;21.29;49.39;98783.41;1894088;103;25881;-80
2022/09/14 22:02:59;;;;;;;4.72;3.83;;;;;;;21.26;49.44;98777.78;1924068;102;25783;-79
2022/09/14 22:06:30;;;;;;;5.50;3.85;;;;;;;21.26;49.52;98782.23;1986725;98;25823;-81
2022/09/14 22:10:04;;;;;;;7.08;4.17;;;;;;;21.26;49.58;98780.90;1977765;99;25826;-80
2022/09/14 22:13:38;;;;;;;6.37;4.28;;;;;;;21.23;49.61;98769.53;1972660;98;26163;-81
2022/09/14 22:17:16;;;;;;;7.80;4.12;;;;;;;21.21;49.59;98766.55;1968011;97;26018;-80
2022/09/14 22:24:41;;;;;;;6.20;4.58;;;;;;;21.18;49.71;98752.11;1929982;100;25876;-81
2022/09/14 22:28:16;;;;;;;7.20;3.98;;;;;;;21.18;49.79;98742.83;1927157;100;26077;-81
2022/09/14 22:31:49;;;;;;;6.85;4.15;;;;;;;21.17;49.81;98734.50;1934447;99;25941;-81
2022/09/14 22:35:26;;;;;;;8.93;4.17;;;;;;;21.15;49.90;98730.58;1948257;99;25827;-81
2022/09/14 22:38:58;;;;;;;5.28;4.03;;;;;;;21.13;50.00;98728.95;2035434;95;26034;-81
2022/09/14 22:42:26;;;;;;;4.65;4.05;;;;;;;21.13;50.05;98723.66;2047065;94;25790;-80
2022/09/14 22:46:16;;;;;;;6.70;4.22;;;;;;;21.11;50.15;98726.82;2058271;93;25995;-81
2022/09/14 22:49:51;;;;;;;5.00;3.95;;;;;;;21.11;50.23;98730.80;2120305;93;31995;-82
2022/09/14 22:53:26;;;;;;;4.72;3.62;;;;;;;21.09;50.29;98732.17;2121865;90;25781;-82
2022/09/14 22:56:57;;;;;;;;;;;;;;;21.08;50.36;98721.19;2032090;97;25505;-81
2022/09/14 23:00:36;;;;;;;5.20;4.60;;;;;;;21.08;50.43;98717.69;2029828;96;25722;-81
2022/09/14 23:04:16;;;;;;;6.95;4.37;;;;;;;21.06;50.47;98710.26;1998959;99;25877;-81
2022/09/14 23:07:46;;;;;;;5.30;4.15;;;;;;;21.06;50.54;98705.84;1998702;97;25848;-81
2022/09/14 23:11:31;;;;;;;5.75;3.83;;;;;;;21.05;50.57;98706.76;1937065;99;25767;-81
2022/09/14 23:15:08;;;;;;;4.53;3.65;;;;;;;21.05;50.64;98699.28;1952256;99;26222;-82
2022/09/14 23:18:42;;;;;;;6.30;3.72;;;;;;;21.03;50.68;98694.53;1980224;98;25783;-82
2022/09/14 23:22:16;;;;;;;7.47;3.75;;;;;;;21.01;50.75;98689.29;2003270;96;26026;-81
2022/09/14 23:25:47;;;;;;;11.12;4.78;;;;;;;21.01;50.79;98695.06;2017865;96;25830;-81
2022/09/14 23:29:16;;;;;;;4.08;3.67;;;;;;;20.99;50.88;98690.70;2110456;91;25901;-81
2022/09/14 23:32:47;;;;;;;4.78;3.85;;;;;;;20.98;50.86;98684.98;2129040;92;25926;-81
2022/09/14 23:36:22;;;;;;;5.62;3.80;;;;;;;20.97;50.89;98687.72;2185711;89;25772;-81
2022/09/14 23:39:49;;;;;;;5.67;3.52;;;;;;;20.95;50.97;98678.50;2198807;89;25727;-81
2022/09/14 23:43:18;;;;;;;4.37;3.37;;;;;;;20.95;51.07;98681.62;2257809;86;25762;-82
2022/09/14 23:46:48;;;;;;;5.03;3.85;;;;;;;20.95;51.12;98683.80;2251580;85;25706;-81
2022/09/14 23:50:22;;;;;;;7.87;3.35;;;;;;;20.94;51.14;98680.77;2270472;86;25776;-82
2022/09/14 23:53:48;;;;;;;5.87;3.67;;;;;;;20.92;51.18;98685.73;2257815;86;25781;-81
2022/09/14 23:57:21;;;;;;;5.72;3.87;;;;;;;20.90;51.17;98683.64;2209985;89;25761;-81
